CheckWX is a tool to help pilots better visualize weather data.  It is not intended as a substitute for an official pre-flight weather briefing.

07:34:18 UTC

KSBA METAR
Santa Barbara Municipal Airport
Santa Barbara, California, USA
Current

41 mins ago

KSBA 060653Z 00000KT 10SM FEW017 11/10 A3011 RMK AO2 SLP196 T01110100
Observed
Dec-6 @ 06:53 UTC
Visibility
10 SM
Flight Rules
VFR
Cloud Levels
  • Few at 1,700' AGL
Temperature
11°C / 52°F
Dewpoint
10°C / 50°F
Humidity
94%
Altimeter
30.11" Hg
Pressure
1019.62 hPa
Previous

2 hours ago

KSBA 060553Z 00000KT 10SM CLR 12/11 A3010 RMK AO2 SLP193 T01170106 10161 20111 53005
Observed
Dec-6 @ 05:53 UTC
Visibility
10 SM
Flight Rules
VFR
Cloud Levels
  • Clear skies
Temperature
12°C / 54°F
Dewpoint
11°C / 52°F
Humidity
94%
Altimeter
30.1" Hg
Pressure
1019.32 hPa
Previous

3 hours ago

KSBA 060453Z 00000KT 10SM CLR 11/11 A3009 RMK AO2 SLP189 T01110106
Observed
Dec-6 @ 04:53 UTC
Visibility
10 SM
Flight Rules
VFR
Cloud Levels
  • Clear skies
Temperature
11°C / 52°F
Dewpoint
11°C / 52°F
Humidity
100%
Altimeter
30.09" Hg
Pressure
1018.92 hPa